Time;durP1;ratioP1;P1;durP2;ratioP2;P2;SDS_P1;SDS_P2;PMS_P1;PMS_P2;Temp;Humidity;BMP_temperature;BMP_pressure;BME280_temperature;BME280_humidity;BME280_pressure;Samples;Min_cycle;Max_cycle;Signal;HPM_P1;HPM_P2
2021/01/21 00:01:19;;;;;;;;;;;6.30;99.90;;;;;;5060322;28;19916;-79
2021/01/21 00:03:45;;;;;;;;;;;6.30;99.90;;;;;;5065920;28;19920;-79
2021/01/21 00:06:11;;;;;;;;;;;6.30;99.90;;;;;;5063479;28;19927;-80
2021/01/21 00:08:37;;;;;;;;;;;6.30;99.90;;;;;;5056727;28;19913;-81
2021/01/21 00:11:03;;;;;;;;;;;6.20;99.90;;;;;;5052154;28;19963;-81
2021/01/21 00:13:29;;;;;;;;;;;6.20;99.90;;;;;;5060746;28;19913;-81
2021/01/21 00:15:55;;;;;;;;;;;6.20;99.90;;;;;;5053767;28;19917;-80
2021/01/21 00:18:21;;;;;;;;;;;6.20;99.90;;;;;;5056137;28;20002;-80
2021/01/21 00:20:47;;;;;;;;;;;6.10;99.90;;;;;;5057248;28;20296;-79
2021/01/21 00:23:13;;;;;;;;;;;6.10;99.90;;;;;;5051691;28;19916;-80
2021/01/21 00:25:39;;;;;;;;;;;6.10;99.90;;;;;;5055828;28;19916;-80
2021/01/21 00:28:05;;;;;;;;;;;6.00;99.90;;;;;;5058165;28;19913;-80
2021/01/21 00:30:31;;;;;;;;;;;6.00;99.90;;;;;;5061563;28;20301;-79
2021/01/21 00:32:57;;;;;;;;;;;6.00;99.90;;;;;;5051172;28;19908;-81
2021/01/21 00:35:23;;;;;;;;;;;6.00;99.90;;;;;;5064902;28;20044;-78
2021/01/21 00:37:49;;;;;;;;;;;5.90;99.90;;;;;;5057801;28;19912;-80
2021/01/21 00:40:14;;;;;;;;;;;6.00;99.90;;;;;;5052205;28;19916;-81
2021/01/21 00:42:40;;;;;;;;;;;5.90;99.90;;;;;;5038869;28;19920;-81
2021/01/21 00:45:07;;;;;;;;;;;5.90;99.90;;;;;;5060085;28;19955;-84
2021/01/21 00:47:33;;;;;;;;;;;5.90;99.90;;;;;;5059437;28;20556;-81
2021/01/21 00:49:59;;;;;;;;;;;5.90;99.90;;;;;;5061704;28;20007;-76
2021/01/21 00:52:25;;;;;;;;;;;5.80;99.90;;;;;;5056509;28;19920;-79
2021/01/21 00:54:51;;;;;;;;;;;5.80;99.90;;;;;;5056534;28;20292;-81
2021/01/21 00:57:16;;;;;;;;;;;5.80;99.90;;;;;;5048244;28;19942;-82
2021/01/21 00:59:42;;;;;;;;;;;5.80;99.90;;;;;;5061850;28;19928;-79
2021/01/21 01:02:08;;;;;;;;;;;5.70;99.90;;;;;;5041440;28;20004;-82
2021/01/21 01:04:34;;;;;;;;;;;5.70;99.90;;;;;;5056114;28;19909;-81
2021/01/21 01:07:00;;;;;;;;;;;5.70;99.90;;;;;;5058229;28;20353;-81
2021/01/21 01:09:26;;;;;;;;;;;5.70;99.90;;;;;;5057220;28;19931;-80
2021/01/21 01:11:52;;;;;;;;;;;5.70;99.90;;;;;;5040496;28;20389;-80
2021/01/21 01:14:18;;;;;;;;;;;5.70;99.90;;;;;;5058641;28;19908;-81
2021/01/21 01:16:44;;;;;;;;;;;5.70;99.90;;;;;;5066209;28;19970;-80
2021/01/21 01:19:10;;;;;;;;;;;5.60;99.90;;;;;;5064694;28;19966;-81
2021/01/21 01:21:36;;;;;;;;;;;5.60;99.90;;;;;;5061174;28;19919;-80
2021/01/21 01:24:02;;;;;;;;;;;5.60;99.90;;;;;;5053902;28;19924;-78
2021/01/21 01:26:28;;;;;;;;;;;5.60;99.90;;;;;;5055487;28;19913;-78
2021/01/21 01:28:54;;;;;;;;;;;5.60;99.90;;;;;;5058268;28;20270;-77
2021/01/21 01:31:20;;;;;;;;;;;5.60;99.90;;;;;;5060818;28;20369;-77
2021/01/21 01:33:46;;;;;;;;;;;5.60;99.90;;;;;;5053645;28;20000;-75
2021/01/21 01:36:12;;;;;;;;;;;5.60;99.90;;;;;;5053944;28;19944;-75
2021/01/21 01:38:38;;;;;;;;;;;5.60;99.90;;;;;;5055549;28;19948;-75
2021/01/21 01:41:04;;;;;;;;;;;5.60;99.90;;;;;;5055156;28;19917;-75
2021/01/21 01:43:30;;;;;;;;;;;5.50;99.90;;;;;;5059311;28;19917;-74
2021/01/21 01:45:56;;;;;;;;;;;5.50;99.90;;;;;;5054666;28;19916;-74
2021/01/21 01:48:22;;;;;;;;;;;5.50;99.90;;;;;;5053856;28;20003;-74
2021/01/21 01:50:48;;;;;;;;;;;5.50;99.90;;;;;;5060567;28;20008;-73
2021/01/21 01:53:14;;;;;;;;;;;5.50;99.90;;;;;;5073076;28;20361;-73
2021/01/21 01:55:40;;;;;;;;;;;5.50;99.90;;;;;;5068063;28;19962;-72
2021/01/21 01:58:07;;;;;;;;;;;5.50;99.90;;;;;;5063486;28;19931;-73
2021/01/21 02:00:33;;;;;;;;;;;5.50;99.90;;;;;;5054866;28;19919;-72
2021/01/21 02:02:59;;;;;;;;;;;5.40;99.90;;;;;;5054107;28;19944;-72
2021/01/21 02:05:25;;;;;;;;;;;5.40;99.90;;;;;;5055073;28;19912;-72
2021/01/21 02:07:51;;;;;;;;;;;5.40;99.90;;;;;;5056737;28;19913;-72
2021/01/21 02:10:17;;;;;;;;;;;5.40;99.90;;;;;;5054477;28;19913;-72
2021/01/21 02:12:47;;;;;;;;;;;5.40;99.90;;;;;;5058571;28;19923;-72
2021/01/21 02:15:20;;;;;;;;;;;5.40;99.90;;;;;;5059231;28;19920;-72
2021/01/21 02:17:55;;;;;;;;;;;5.40;99.90;;;;;;5052474;28;19908;-72
2021/01/21 02:20:27;;;;;;;;;;;5.40;99.90;;;;;;5054383;28;19915;-72
2021/01/21 02:23:25;;;;;;;;;;;5.30;99.90;;;;;;5056358;28;19935;-72
2021/01/21 02:25:58;;;;;;;;;;;5.30;99.90;;;;;;5044151;28;19912;-72
2021/01/21 02:28:24;;;;;;;;;;;5.30;99.90;;;;;;5058082;28;19924;-72
2021/01/21 02:30:56;;;;;;;;;;;5.30;99.90;;;;;;5055684;28;20285;-72
2021/01/21 02:33:42;;;;;;;;;;;5.30;99.90;;;;;;5055274;28;20285;-72
2021/01/21 02:36:10;;;;;;;;;;;5.30;99.90;;;;;;5059532;28;19923;-72
2021/01/21 02:38:36;;;;;;;;;;;5.30;99.90;;;;;;5053238;28;19908;-71
2021/01/21 02:41:01;;;;;;;;;;;5.30;99.90;;;;;;5052499;28;19908;-72
2021/01/21 02:43:27;;;;;;;;;;;5.30;99.90;;;;;;5054149;28;19935;-71
2021/01/21 02:45:53;;;;;;;;;;;5.30;99.90;;;;;;5052037;28;19916;-72
2021/01/21 02:48:19;;;;;;;;;;;5.30;99.90;;;;;;5052211;28;19921;-72
2021/01/21 02:50:45;;;;;;;;;;;5.20;99.90;;;;;;5053593;28;19917;-72
2021/01/21 02:53:11;;;;;;;;;;;5.30;99.90;;;;;;5056739;28;19912;-72
2021/01/21 02:55:37;;;;;;;;;;;5.30;99.90;;;;;;5052456;28;20332;-72
2021/01/21 02:58:13;;;;;;;;;;;5.30;99.90;;;;;;5053308;28;19912;-72
2021/01/21 03:00:40;;;;;;;;;;;5.30;99.90;;;;;;5051893;28;19916;-72
2021/01/21 03:03:13;;;;;;;;;;;5.30;99.90;;;;;;5052146;28;19928;-72
2021/01/21 03:05:39;;;;;;;;;;;5.20;99.90;;;;;;5065338;28;19908;-72
2021/01/21 03:08:06;;;;;;;;;;;5.20;99.90;;;;;;5033980;28;20266;-72
2021/01/21 03:10:32;;;;;;;;;;;5.20;99.90;;;;;;5056024;28;19916;-72
2021/01/21 03:12:58;;;;;;;;;;;5.20;99.90;;;;;;5052253;28;20011;-72
2021/01/21 03:15:24;;;;;;;;;;;5.20;99.90;;;;;;5051315;28;19932;-72
2021/01/21 03:17:50;;;;;;;;;;;5.20;99.90;;;;;;5051009;28;20416;-72
2021/01/21 03:20:16;;;;;;;;;;;5.20;99.90;;;;;;5053233;28;19921;-72
2021/01/21 03:22:42;;;;;;;;;;;5.20;99.90;;;;;;5052292;28;19916;-72
2021/01/21 03:25:08;;;;;;;;;;;5.20;99.90;;;;;;5053082;28;19999;-72
2021/01/21 03:27:34;;;;;;;;;;;5.20;99.90;;;;;;5052428;28;19916;-72
2021/01/21 03:30:00;;;;;;;;;;;5.20;99.90;;;;;;5060332;28;19928;-72
2021/01/21 03:32:26;;;;;;;;;;;5.20;99.90;;;;;;5057351;28;19909;-72
2021/01/21 03:34:52;;;;;;;;;;;5.20;99.90;;;;;;5052275;28;19912;-72
2021/01/21 03:37:18;;;;;;;;;;;5.20;99.90;;;;;;5058430;28;19924;-72
2021/01/21 03:39:44;;;;;;;;;;;5.20;99.90;;;;;;5060262;28;19913;-72
2021/01/21 03:42:10;;;;;;;;;;;5.20;99.90;;;;;;5055391;28;19920;-72
2021/01/21 03:44:36;;;;;;;;;;;5.20;99.90;;;;;;5062614;28;19935;-72
2021/01/21 03:47:02;;;;;;;;;;;5.10;99.90;;;;;;5062101;28;20334;-72
2021/01/21 03:49:27;;;;;;;;;;;5.20;99.90;;;;;;5051977;28;20340;-72
2021/01/21 03:51:53;;;;;;;;;;;5.10;99.90;;;;;;5052345;28;19917;-72
2021/01/21 03:54:19;;;;;;;;;;;5.20;99.90;;;;;;5052414;28;20392;-72
2021/01/21 03:56:45;;;;;;;;;;;5.20;99.90;;;;;;5053350;28;20447;-72
2021/01/21 03:59:11;;;;;;;;;;;5.20;99.90;;;;;;5060105;28;20417;-72
2021/01/21 04:01:37;;;;;;;;;;;5.20;99.90;;;;;;5053067;28;19949;-72
2021/01/21 04:04:03;;;;;;;;;;;5.20;99.90;;;;;;5055994;28;19912;-72
2021/01/21 04:06:29;;;;;;;;;;;5.20;99.90;;;;;;5053404;28;20350;-72
2021/01/21 04:08:55;;;;;;;;;;;5.20;99.90;;;;;;5053342;28;19912;-72
2021/01/21 04:11:21;;;;;;;;;;;5.20;99.90;;;;;;5038965;28;19908;-72
2021/01/21 04:13:47;;;;;;;;;;;5.30;99.90;;;;;;5052484;28;19908;-72
2021/01/21 04:16:13;;;;;;;;;;;5.30;99.90;;;;;;5053986;28;19943;-72
2021/01/21 04:18:39;;;;;;;;;;;5.30;99.90;;;;;;5055179;28;19913;-72
2021/01/21 04:21:05;;;;;;;;;;;5.30;99.90;;;;;;5050054;28;19959;-72
2021/01/21 04:23:33;;;;;;;;;;;5.30;99.90;;;;;;5055363;28;19950;-72
2021/01/21 04:25:59;;;;;;;;;;;5.30;99.90;;;;;;5056579;28;19920;-72
2021/01/21 04:28:25;;;;;;;;;;;5.40;99.90;;;;;;5052068;28;19921;-72
2021/01/21 04:30:51;;;;;;;;;;;5.40;99.90;;;;;;5064580;28;20357;-71
2021/01/21 04:33:17;;;;;;;;;;;5.30;99.90;;;;;;5056019;28;19912;-72
2021/01/21 04:35:43;;;;;;;;;;;5.40;99.90;;;;;;5059390;28;19977;-71
2021/01/21 04:38:09;;;;;;;;;;;5.40;99.90;;;;;;5052940;28;20016;-72
2021/01/21 04:40:35;;;;;;;;;;;5.40;99.90;;;;;;5046493;28;19931;-72
2021/01/21 04:43:01;;;;;;;;;;;5.30;99.90;;;;;;5054068;28;19954;-72
2021/01/21 04:45:27;;;;;;;;;;;5.40;99.90;;;;;;5061664;28;19943;-72
2021/01/21 04:47:53;;;;;;;;;;;5.30;99.90;;;;;;5063539;28;19909;-72
2021/01/21 04:50:19;;;;;;;;;;;5.30;99.90;;;;;;5056717;28;19908;-72
2021/01/21 04:52:46;;;;;;;;;;;5.30;99.90;;;;;;5054958;28;20384;-72
2021/01/21 04:55:32;;;;;;;;;;;5.30;99.90;;;;;;5050495;28;20281;-72
2021/01/21 04:58:09;;;;;;;;;;;5.30;99.90;;;;;;5046055;28;19915;-72
2021/01/21 05:00:35;;;;;;;;;;;5.30;99.90;;;;;;5052109;28;19905;-72
2021/01/21 05:03:01;;;;;;;;;;;5.30;99.90;;;;;;5059166;28;19904;-72
2021/01/21 05:05:27;;;;;;;;;;;5.30;99.90;;;;;;5059869;28;20273;-72
2021/01/21 05:07:53;;;;;;;;;;;5.30;99.90;;;;;;5060640;28;19913;-72
2021/01/21 05:10:19;;;;;;;;;;;5.30;99.90;;;;;;5051665;28;20321;-73
2021/01/21 05:12:45;;;;;;;;;;;5.40;99.90;;;;;;5050826;28;19928;-72
2021/01/21 05:15:11;;;;;;;;;;;5.30;99.90;;;;;;5051470;28;20388;-72
2021/01/21 05:17:37;;;;;;;;;;;5.40;99.90;;;;;;5050318;28;19913;-73
2021/01/21 05:20:03;;;;;;;;;;;5.40;99.90;;;;;;5043230;28;19909;-72
2021/01/21 05:22:29;;;;;;;;;;;5.30;99.90;;;;;;5050353;28;19905;-73
2021/01/21 05:24:55;;;;;;;;;;;5.40;99.90;;;;;;5050373;28;19920;-73
2021/01/21 05:27:21;;;;;;;;;;;5.30;99.90;;;;;;5051024;28;19912;-72
2021/01/21 05:29:47;;;;;;;;;;;5.30;99.90;;;;;;5066347;28;19916;-74
2021/01/21 05:32:14;;;;;;;;;;;5.30;99.90;;;;;;5064403;28;20384;-73
2021/01/21 05:34:40;;;;;;;;;;;5.30;99.90;;;;;;5059782;28;19916;-72
2021/01/21 05:37:12;;;;;;;;;;;5.30;99.90;;;;;;5067933;28;20297;-73
2021/01/21 05:39:39;;;;;;;;;;;5.30;99.90;;;;;;5075311;28;19911;-72
2021/01/21 05:42:05;;;;;;;;;;;5.40;99.90;;;;;;5070828;28;19915;-73
2021/01/21 05:44:31;;;;;;;;;;;5.40;99.90;;;;;;5063864;28;19912;-73
2021/01/21 05:46:59;;;;;;;;;;;5.40;99.90;;;;;;5055123;28;19923;-72
2021/01/21 05:49:26;;;;;;;;;;;5.30;99.90;;;;;;5053371;28;20400;-71
2021/01/21 05:51:53;;;;;;;;;;;5.30;99.90;;;;;;5055255;28;19905;-71
2021/01/21 05:54:19;;;;;;;;;;;5.30;99.90;;;;;;5054075;28;20365;-72
2021/01/21 05:56:45;;;;;;;;;;;5.30;99.90;;;;;;5053679;28;19917;-72
2021/01/21 05:59:11;;;;;;;;;;;5.30;99.90;;;;;;5053667;28;19905;-72
2021/01/21 06:01:37;;;;;;;;;;;5.30;99.90;;;;;;5061942;28;19912;-72
2021/01/21 06:04:05;;;;;;;;;;;5.30;99.90;;;;;;5073963;28;19915;-71
2021/01/21 06:06:31;;;;;;;;;;;5.40;99.90;;;;;;5063329;28;19916;-71
2021/01/21 06:08:57;;;;;;;;;;;5.40;99.90;;;;;;5052302;28;19909;-71
2021/01/21 06:11:23;;;;;;;;;;;5.40;99.90;;;;;;5052572;28;19992;-71
2021/01/21 06:13:48;;;;;;;;;;;5.40;99.90;;;;;;5054069;28;19921;-72
2021/01/21 06:16:15;;;;;;;;;;;5.40;99.90;;;;;;5053524;28;19920;-72
2021/01/21 06:18:40;;;;;;;;;;;5.40;99.90;;;;;;5058653;28;19967;-71
2021/01/21 06:21:07;;;;;;;;;;;5.40;99.90;;;;;;5057710;28;20369;-71
2021/01/21 06:23:33;;;;;;;;;;;5.40;99.90;;;;;;5062502;28;19923;-73
2021/01/21 06:25:59;;;;;;;;;;;5.40;99.90;;;;;;5054308;28;19920;-73
2021/01/21 06:28:25;;;;;;;;;;;5.40;99.90;;;;;;5054347;28;19939;-72
2021/01/21 06:30:52;;;;;;;;;;;5.40;99.90;;;;;;5054254;28;20653;-72
2021/01/21 06:33:18;;;;;;;;;;;5.40;99.90;;;;;;5055154;28;19905;-71
2021/01/21 06:35:48;;;;;;;;;;;5.40;99.90;;;;;;5062739;28;19916;-71
2021/01/21 06:38:15;;;;;;;;;;;5.40;99.90;;;;;;5059374;28;19908;-71
2021/01/21 06:40:43;;;;;;;;;;;5.50;99.90;;;;;;5066572;28;20277;-71
2021/01/21 06:43:12;;;;;;;;;;;5.50;99.90;;;;;;5068024;28;19904;-72
2021/01/21 06:45:38;;;;;;;;;;;5.50;99.90;;;;;;5071586;28;19911;-72
2021/01/21 06:48:05;;;;;;;;;;;5.50;99.90;;;;;;5057503;28;19915;-71
2021/01/21 06:50:31;;;;;;;;;;;5.50;99.90;;;;;;5053000;28;19916;-71
2021/01/21 06:53:02;;;;;;;;;;;5.50;99.90;;;;;;5059577;28;19905;-71
2021/01/21 06:55:28;;;;;;;;;;;5.40;99.90;;;;;;5059557;28;19913;-71
2021/01/21 06:57:54;;;;;;;;;;;5.40;99.90;;;;;;5054074;28;20459;-71
2021/01/21 07:00:39;;;;;;;;;;;5.50;99.90;;;;;;5057828;28;19917;-71
2021/01/21 07:03:05;;;;;;;;;;;5.50;99.90;;;;;;5060250;28;19912;-71
2021/01/21 07:05:31;;;;;;;;;;;5.50;99.90;;;;;;5053025;28;19951;-71
2021/01/21 07:08:03;;;;;;;;;;;5.50;99.90;;;;;;5060339;28;19904;-71
2021/01/21 07:10:29;;;;;;;;;;;5.50;99.90;;;;;;5057558;28;19909;-71
2021/01/21 07:12:55;;;;;;;;;;;5.50;99.90;;;;;;5058996;28;19956;-71
2021/01/21 07:15:28;;;;;;;;;;;5.50;99.90;;;;;;5048410;28;20642;-71
2021/01/21 07:18:00;;;;;;;;;;;5.50;99.90;;;;;;5056097;28;20024;-71
2021/01/21 07:20:26;;;;;;;;;;;5.50;99.90;;;;;;5054613;28;19916;-71
2021/01/21 07:22:52;;;;;;;;;;;5.50;99.90;;;;;;5055793;28;20456;-71
2021/01/21 07:25:19;;;;;;;;;;;5.50;99.90;;;;;;5056041;28;20389;-72
2021/01/21 07:27:45;;;;;;;;;;;5.50;99.90;;;;;;5063924;28;19916;-71
2021/01/21 07:30:21;;;;;;;;;;;5.50;99.90;;;;;;5061758;28;20340;-72
2021/01/21 07:32:47;;;;;;;;;;;5.50;99.90;;;;;;5059809;28;19958;-71
2021/01/21 07:35:31;;;;;;;;;;;5.50;99.90;;;;;;5050634;28;20361;-72
2021/01/21 07:37:57;;;;;;;;;;;5.40;99.90;;;;;;5052912;28;19923;-72
2021/01/21 07:40:42;;;;;;;;;;;5.40;99.90;;;;;;5060110;28;19920;-72
2021/01/21 07:43:08;;;;;;;;;;;5.50;99.90;;;;;;5068745;28;19927;-72
2021/01/21 07:45:34;;;;;;;;;;;5.40;99.90;;;;;;5071267;28;19904;-72
2021/01/21 07:48:19;;;;;;;;;;;5.40;99.90;;;;;;5059009;28;19919;-71
2021/01/21 07:50:45;;;;;;;;;;;5.40;99.90;;;;;;5051783;28;19939;-71
2021/01/21 07:53:24;;;;;;;;;;;5.40;99.90;;;;;;5055076;28;20368;-72
2021/01/21 07:55:51;;;;;;;;;;;5.50;99.90;;;;;;5060374;28;19913;-71
2021/01/21 07:58:36;;;;;;;;;;;5.50;99.90;;;;;;5053126;28;19913;-71
2021/01/21 08:01:09;;;;;;;;;;;5.50;99.90;;;;;;5067556;28;19949;-71
2021/01/21 08:03:41;;;;;;;;;;;5.50;99.90;;;;;;5047805;28;20320;-71
2021/01/21 08:06:11;;;;;;;;;;;5.50;99.90;;;;;;5057660;28;19911;-71
2021/01/21 08:08:40;;;;;;;;;;;5.50;99.90;;;;;;5054853;28;19939;-71
2021/01/21 08:11:07;;;;;;;;;;;5.60;99.90;;;;;;5051540;28;19919;-71
2021/01/21 08:13:34;;;;;;;;;;;5.60;99.90;;;;;;5053851;28;19921;-72
2021/01/21 08:16:00;;;;;;;;;;;5.60;99.90;;;;;;5054545;28;19919;-72
2021/01/21 08:18:26;;;;;;;;;;;5.60;99.90;;;;;;5051757;28;20292;-71
2021/01/21 08:20:52;;;;;;;;;;;5.60;99.90;;;;;;5053694;28;19959;-71
2021/01/21 08:23:18;;;;;;;;;;;5.70;99.90;;;;;;5053847;28;20369;-72
2021/01/21 08:25:48;;;;;;;;;;;5.70;99.90;;;;;;5051768;28;19959;-72
2021/01/21 08:28:15;;;;;;;;;;;5.70;99.90;;;;;;5050489;28;20277;-72
2021/01/21 08:30:41;;;;;;;;;;;5.70;99.90;;;;;;5051906;28;20412;-72
2021/01/21 08:33:14;;;;;;;;;;;5.80;99.90;;;;;;5049519;28;19909;-72
2021/01/21 08:35:44;;;;;;;;;;;5.80;99.90;;;;;;5057522;28;19909;-72
2021/01/21 08:38:10;;;;;;;;;;;5.90;99.90;;;;;;5060396;28;19923;-72
2021/01/21 08:40:36;;;;;;;;;;;5.90;99.90;;;;;;5048849;28;19923;-72
2021/01/21 08:43:02;;;;;;;;;;;5.90;99.90;;;;;;5058557;28;19908;-71
2021/01/21 08:45:29;;;;;;;;;;;6.00;99.90;;;;;;5041240;28;20312;-72
2021/01/21 08:47:55;;;;;;;;;;;5.90;99.90;;;;;;5063358;28;20297;-72
2021/01/21 08:50:21;;;;;;;;;;;6.00;99.90;;;;;;5053505;28;19908;-72
2021/01/21 08:52:59;;;;;;;;;;;5.90;99.90;;;;;;5049347;28;19923;-72
2021/01/21 08:55:38;;;;;;;;;;;5.90;99.90;;;;;;5043035;28;19931;-72
2021/01/21 08:58:04;;;;;;;;;;;6.00;99.90;;;;;;5044947;28;19925;-72
2021/01/21 09:00:30;;;;;;;;;;;5.90;99.90;;;;;;5058106;28;19958;-72
2021/01/21 09:02:56;;;;;;;;;;;6.00;99.90;;;;;;5049387;28;19917;-72
2021/01/21 09:05:22;;;;;;;;;;;6.00;99.90;;;;;;5054238;28;19908;-72
2021/01/21 09:07:49;;;;;;;;;;;6.00;99.90;;;;;;5053775;28;19935;-72
2021/01/21 09:10:15;;;;;;;;;;;6.00;99.90;;;;;;5047545;28;19913;-72
2021/01/21 09:12:41;;;;;;;;;;;6.00;99.90;;;;;;5053475;28;19913;-72
2021/01/21 09:15:13;;;;;;;;;;;6.00;99.90;;;;;;5052719;28;20366;-72
2021/01/21 09:17:40;;;;;;;;;;;6.00;99.90;;;;;;5035837;28;20392;-72
2021/01/21 09:20:19;;;;;;;;;;;6.00;99.90;;;;;;5051354;28;19915;-72
2021/01/21 09:22:46;;;;;;;;;;;6.10;99.90;;;;;;5053253;28;19940;-72
2021/01/21 09:25:12;;;;;;;;;;;6.10;99.90;;;;;;5055256;28;19912;-72
2021/01/21 09:27:38;;;;;;;;;;;6.10;99.90;;;;;;5053279;28;20301;-73
2021/01/21 09:30:04;;;;;;;;;;;6.10;99.90;;;;;;5053979;28;19924;-73
2021/01/21 09:32:31;;;;;;;;;;;6.20;99.90;;;;;;5055635;28;19939;-72
2021/01/21 09:35:04;;;;;;;;;;;6.20;99.90;;;;;;5053609;28;20365;-72
2021/01/21 09:37:32;;;;;;;;;;;6.20;99.90;;;;;;5035352;28;19927;-72
2021/01/21 09:39:58;;;;;;;;;;;6.20;99.90;;;;;;5054174;28;19916;-72
2021/01/21 09:42:24;;;;;;;;;;;6.20;99.90;;;;;;5049106;28;19909;-72
2021/01/21 09:44:50;;;;;;;;;;;6.30;99.90;;;;;;5050790;28;19908;-72
2021/01/21 09:47:16;;;;;;;;;;;6.30;99.90;;;;;;5053143;28;20319;-72
2021/01/21 09:49:42;;;;;;;;;;;6.40;99.90;;;;;;5068255;28;19909;-71
2021/01/21 09:52:08;;;;;;;;;;;6.40;99.90;;;;;;5053894;28;19936;-72
2021/01/21 09:54:34;;;;;;;;;;;6.40;99.90;;;;;;5051281;28;20301;-72
2021/01/21 09:57:00;;;;;;;;;;;6.30;99.90;;;;;;5057819;28;19963;-75
2021/01/21 09:59:27;;;;;;;;;;;6.20;99.90;;;;;;5056399;28;20327;-78
2021/01/21 10:01:52;;;;;;;;;;;6.10;99.90;;;;;;5043497;28;19924;-78
2021/01/21 10:04:18;;;;;;;;;;;6.00;99.90;;;;;;5049717;28;20350;-80
2021/01/21 10:06:45;;;;;;;;;;;6.00;99.90;;;;;;5058837;28;19929;-79
2021/01/21 10:09:11;;;;;;;;;;;5.90;99.90;;;;;;5053678;28;19909;-80
2021/01/21 10:11:37;;;;;;;;;;;5.80;99.90;;;;;;5039209;28;19916;-79
2021/01/21 10:14:03;;;;;;;;;;;5.80;99.90;;;;;;5037474;28;19905;-78
2021/01/21 10:16:29;;;;;;;;;;;5.70;99.90;;;;;;5041888;28;19975;-78
2021/01/21 10:18:56;;;;;;;;;;;5.80;99.90;;;;;;5046774;28;19917;-79
2021/01/21 10:21:26;;;;;;;;;;;5.70;99.90;;;;;;5052139;28;19913;-79
2021/01/21 10:23:52;;;;;;;;;;;5.70;99.90;;;;;;5042838;28;19940;-79
2021/01/21 10:26:18;;;;;;;;;;;5.70;99.90;;;;;;5026634;28;19924;-78
2021/01/21 10:28:44;;;;;;;;;;;5.70;99.90;;;;;;5042531;28;19931;-78
2021/01/21 10:31:10;;;;;;;;;;;5.70;99.90;;;;;;5060227;28;20311;-78
2021/01/21 10:33:36;;;;;;;;;;;5.70;99.90;;;;;;5051991;28;19909;-77
2021/01/21 10:36:05;;;;;;;;;;;5.70;99.90;;;;;;5053428;28;19916;-78
2021/01/21 10:38:31;;;;;;;;;;;5.70;99.90;;;;;;5053547;28;20365;-83
2021/01/21 10:40:58;;;;;;;;;;;5.70;99.90;;;;;;5050926;28;19909;-79
2021/01/21 10:43:24;;;;;;;;;;;5.70;99.90;;;;;;5050207;28;19909;-79
2021/01/21 10:45:50;;;;;;;;;;;5.70;99.90;;;;;;5031274;28;19917;-76
2021/01/21 10:48:16;;;;;;;;;;;5.70;99.90;;;;;;5050430;28;19908;-77
2021/01/21 10:50:42;;;;;;;;;;;5.70;99.90;;;;;;5050968;28;19931;-77
2021/01/21 10:53:08;;;;;;;;;;;5.80;99.90;;;;;;5053144;28;20636;-76
2021/01/21 10:55:34;;;;;;;;;;;5.80;99.90;;;;;;5047895;28;19935;-77
2021/01/21 10:58:00;;;;;;;;;;;5.80;99.90;;;;;;5049236;28;19928;-79
2021/01/21 11:00:27;;;;;;;;;;;5.80;99.90;;;;;;5049916;28;19912;-79
2021/01/21 11:02:53;;;;;;;;;;;5.80;99.90;;;;;;5063004;28;20397;-81
2021/01/21 11:05:18;;;;;;;;;;;5.80;99.90;;;;;;5038652;28;19928;-79
2021/01/21 11:07:44;;;;;;;;;;;5.80;99.90;;;;;;5051448;28;19924;-80
2021/01/21 11:10:10;;;;;;;;;;;5.80;99.90;;;;;;5050721;28;19944;-82
2021/01/21 11:12:36;;;;;;;;;;;5.80;99.90;;;;;;5055204;28;19992;-82
2021/01/21 11:15:03;;;;;;;;;;;5.90;99.90;;;;;;5055566;28;19913;-83
2021/01/21 11:17:29;;;;;;;;;;;5.80;99.90;;;;;;5028404;28;19921;-80
2021/01/21 11:19:58;;;;;;;;;;;5.80;99.90;;;;;;5031136;28;19913;-82
2021/01/21 11:22:24;;;;;;;;;;;5.80;99.90;;;;;;5032720;28;19936;-80
2021/01/21 11:24:50;;;;;;;;;;;5.80;99.90;;;;;;5042632;28;19912;-77
2021/01/21 11:27:17;;;;;;;;;;;5.80;99.90;;;;;;5036222;28;19932;-77
2021/01/21 11:29:42;;;;;;;;;;;5.80;99.90;;;;;;5049170;28;19916;-77
2021/01/21 11:32:08;;;;;;;;;;;5.70;99.90;;;;;;5039109;28;20284;-75
2021/01/21 11:34:34;;;;;;;;;;;5.80;99.90;;;;;;5056226;28;20441;-73
2021/01/21 11:37:00;;;;;;;;;;;5.80;99.90;;;;;;5053855;28;20266;-72
2021/01/21 11:39:26;;;;;;;;;;;5.80;99.90;;;;;;5050380;28;19913;-72
2021/01/21 11:41:53;;;;;;;;;;;5.80;99.90;;;;;;5045790;28;19919;-72
2021/01/21 11:44:19;;;;;;;;;;;5.80;99.90;;;;;;5035917;28;19909;-72
2021/01/21 11:46:45;;;;;;;;;;;5.80;99.90;;;;;;5035001;28;19923;-72
2021/01/21 11:49:11;;;;;;;;;;;5.80;99.90;;;;;;5062763;28;19909;-72
2021/01/21 11:51:37;;;;;;;;;;;5.80;99.90;;;;;;5056585;28;20015;-72
2021/01/21 11:54:03;;;;;;;;;;;5.70;99.90;;;;;;5058889;28;19917;-71
2021/01/21 11:56:29;;;;;;;;;;;5.70;99.90;;;;;;5058037;28;19908;-71
2021/01/21 11:58:55;;;;;;;;;;;5.80;99.90;;;;;;5048097;28;19924;-71
2021/01/21 12:01:21;;;;;;;;;;;5.80;99.90;;;;;;5050839;28;19917;-72
2021/01/21 12:03:47;;;;;;;;;;;5.80;99.90;;;;;;5051048;28;19939;-72
2021/01/21 12:06:13;;;;;;;;;;;5.80;99.90;;;;;;5030912;28;19924;-71
2021/01/21 12:08:39;;;;;;;;;;;5.80;99.90;;;;;;5048757;28;20453;-72
2021/01/21 12:11:05;;;;;;;;;;;5.80;99.90;;;;;;5048242;28;19940;-71
2021/01/21 12:13:31;;;;;;;;;;;5.80;99.90;;;;;;5063850;28;19913;-72
2021/01/21 12:15:59;;;;;;;;;;;5.70;99.90;;;;;;5051315;28;20378;-72
2021/01/21 12:18:25;;;;;;;;;;;5.70;99.90;;;;;;5057878;28;19920;-72
2021/01/21 12:20:52;;;;;;;;;;;5.60;99.90;;;;;;5047846;28;19916;-73
2021/01/21 12:23:18;;;;;;;;;;;5.60;99.90;;;;;;5049366;28;19915;-74
2021/01/21 12:25:44;;;;;;;;;;;5.60;99.90;;;;;;5051482;28;19909;-72
2021/01/21 12:28:10;;;;;;;;;;;5.60;99.90;;;;;;5044109;28;19919;-72
2021/01/21 12:30:36;;;;;;;;;;;5.60;99.90;;;;;;5043408;28;20366;-72
2021/01/21 12:33:02;;;;;;;;;;;5.60;99.90;;;;;;5027812;28;19917;-73
2021/01/21 12:35:28;;;;;;;;;;;5.60;99.90;;;;;;5048372;28;19982;-73
2021/01/21 12:37:54;;;;;;;;;;;5.60;99.90;;;;;;5052536;28;19952;-74
2021/01/21 12:40:20;;;;;;;;;;;5.60;99.90;;;;;;5046685;28;19948;-73
2021/01/21 12:42:46;;;;;;;;;;;5.60;99.90;;;;;;5048582;28;20373;-73
2021/01/21 12:45:12;;;;;;;;;;;5.50;99.90;;;;;;5051938;28;19908;-72
2021/01/21 12:47:38;;;;;;;;;;;5.50;99.90;;;;;;5049938;28;19919;-73
2021/01/21 12:50:07;;;;;;;;;;;5.50;99.90;;;;;;5050761;28;19909;-74
2021/01/21 12:52:33;;;;;;;;;;;5.50;99.90;;;;;;5052612;28;19931;-74
2021/01/21 12:54:59;;;;;;;;;;;5.50;99.90;;;;;;5055328;28;20409;-73
2021/01/21 12:57:25;;;;;;;;;;;5.50;99.90;;;;;;5058387;28;19923;-74
2021/01/21 12:59:52;;;;;;;;;;;5.50;99.90;;;;;;5058976;28;19905;-74
2021/01/21 13:02:18;;;;;;;;;;;5.50;99.90;;;;;;5056408;28;19905;-74
2021/01/21 13:04:44;;;;;;;;;;;5.50;99.90;;;;;;5051394;28;19935;-74
2021/01/21 13:07:10;;;;;;;;;;;5.50;99.90;;;;;;5048287;28;19909;-74
2021/01/21 13:09:36;;;;;;;;;;;5.50;99.90;;;;;;5053035;28;20207;-73
2021/01/21 13:12:02;;;;;;;;;;;5.40;99.90;;;;;;5053262;28;19915;-73
2021/01/21 13:14:28;;;;;;;;;;;5.40;99.90;;;;;;5051792;28;20305;-74
2021/01/21 13:16:54;;;;;;;;;;;5.40;99.90;;;;;;5056143;28;19916;-74
2021/01/21 13:19:20;;;;;;;;;;;5.40;99.90;;;;;;5048696;28;19916;-74
2021/01/21 13:21:46;;;;;;;;;;;5.40;99.90;;;;;;5044507;28;19924;-74
2021/01/21 13:24:12;;;;;;;;;;;5.40;99.90;;;;;;5052104;28;19918;-74
2021/01/21 13:26:41;;;;;;;;;;;5.40;99.90;;;;;;5051091;28;19915;-74
2021/01/21 13:29:07;;;;;;;;;;;5.30;99.90;;;;;;5056191;28;19916;-74
2021/01/21 13:31:33;;;;;;;;;;;5.40;99.90;;;;;;5051456;28;19909;-73
2021/01/21 13:33:59;;;;;;;;;;;5.40;99.90;;;;;;5058434;28;19931;-73
2021/01/21 13:36:25;;;;;;;;;;;5.40;99.90;;;;;;5044881;28;19920;-73
2021/01/21 13:38:51;;;;;;;;;;;5.40;99.90;;;;;;5039073;28;19947;-73
2021/01/21 13:41:17;;;;;;;;;;;5.40;99.90;;;;;;5048915;28;19917;-73
2021/01/21 13:43:43;;;;;;;;;;;5.40;99.90;;;;;;5049952;28;19908;-73
2021/01/21 13:46:09;;;;;;;;;;;5.30;99.90;;;;;;5060942;28;19915;-73
2021/01/21 13:48:35;;;;;;;;;;;5.30;99.90;;;;;;5066312;28;19916;-72
2021/01/21 13:51:03;;;;;;;;;;;5.30;99.90;;;;;;5061939;28;19947;-74
2021/01/21 13:53:30;;;;;;;;;;;5.30;99.90;;;;;;5072589;28;19915;-73
2021/01/21 13:55:56;;;;;;;;;;;5.30;99.90;;;;;;5069659;28;20631;-73
2021/01/21 13:58:22;;;;;;;;;;;5.40;99.90;;;;;;5055262;28;19917;-73
2021/01/21 14:00:48;;;;;;;;;;;5.30;99.90;;;;;;5055084;28;20315;-73
2021/01/21 14:03:13;;;;;;;;;;;5.30;99.90;;;;;;5052487;28;20285;-72
2021/01/21 14:05:39;;;;;;;;;;;5.30;99.90;;;;;;5054681;28;20388;-73
2021/01/21 14:08:05;;;;;;;;;;;5.30;99.90;;;;;;5054867;28;19995;-73
2021/01/21 14:10:31;;;;;;;;;;;5.20;99.90;;;;;;5049668;28;19908;-73
2021/01/21 14:12:57;;;;;;;;;;;5.20;99.90;;;;;;5052245;28;19909;-73
2021/01/21 14:15:23;;;;;;;;;;;5.10;99.90;;;;;;5054952;28;19913;-73
2021/01/21 14:17:49;;;;;;;;;;;5.10;99.90;;;;;;5052239;28;19916;-73
2021/01/21 14:20:15;;;;;;;;;;;5.10;99.90;;;;;;5046320;28;19916;-74
2021/01/21 14:22:41;;;;;;;;;;;5.00;99.90;;;;;;5043484;28;20344;-73
2021/01/21 14:25:08;;;;;;;;;;;5.00;99.90;;;;;;5054833;28;19982;-73
2021/01/21 14:27:34;;;;;;;;;;;5.00;99.90;;;;;;5057728;28;19916;-72
2021/01/21 14:30:00;;;;;;;;;;;4.90;99.90;;;;;;5061857;28;19917;-73